Terminal Aerodrome Forecast
Issued by NWS

Home | Current Version | Previous Version | Graphics & Text | Print | Product List | Glossary On
Versions: 1 2 3 4 5 6 7 8 9 10 11 12 13 14 15 16 17 18 19 20
000
FTUS42 KMHX 261400 AAA
TAFISO
TAF AMD
KISO 261401Z 2614/2712 36015G23KT 4SM -RA OVC008
     FM261700 33010G17KT P6SM VCSH SCT007 OVC020
     FM262300 30004KT P6SM SCT025 BKN050
      AMD LTD TO CLD VIS AND WIND=

USA.gov is the U.S. government's official web portal to all federal, state and local government web resources and services.